Detalii statie PROACUA CEFA [00001987]

Toti senzorii

Date Temperatura solului [C]Precipitatii [mm]Voltaj baterie [mV]Leaf Wetness [Min]HC Air temperature [C]HC Relative humidity [%]Punctul de roua [C]
medieminmaxsumaultimatimpmedieminmaxmediemediemin
2018-10-13 15:00:00 0.2 7020 23.42 23.22 23.68 0 0 0
2018-10-13 16:00:00 0 7284 23.48 23.33 23.66 0 0 0
2018-10-13 17:00:00 0.2 7264 22.56 21.3 23.26 0 0 0
2018-10-13 18:00:00 1.4 6864 18.71 16.32 20.76 0 0 0
2018-10-13 19:00:00 0 6854 15.6 14.9 16.09 0 0 0
2018-10-13 20:00:00 0 6854 14.79 13.81 15.52 0 0 0
2018-10-13 21:00:00 0 6844 12.11 10.8 13.54 0 0 0
2018-10-13 22:00:00 0 6834 10.62 10.16 10.92 0 0 0
2018-10-13 23:00:00 0 6834 10.66 10.16 11.15 0 0 0
2018-10-14 00:00:00 0 6834 9.6 8.3 11.32 0 0 0
2018-10-14 01:00:00 0 6816 9.01 8.69 9.53 0 0 0
2018-10-14 02:00:00 0 6826 8.69 8.33 9.03 0 0 0
2018-10-14 03:00:00 0 6826 8.16 7.77 8.95 0 0 0
2018-10-14 04:00:00 0 6816 8.64 8.37 8.88 0 0 0
2018-10-14 05:00:00 0 6816 8.12 7.88 8.46 0 0 0
2018-10-14 06:00:00 0 6806 8.23 7.58 9.06 0 0 0
2018-10-14 07:00:00 1.4 6806 8.61 8.06 9.03 8.33 0
2018-10-14 08:00:00 0.6 6992 9.63 8.96 10.31 16.66 1.7 0
2018-10-14 09:00:00 0.2 7040 12.57 10.57 15.2 16.26 1.9 0
2018-10-14 10:00:00 0 7010 16.9 15.54 18.06 9.61 1.5 0
2018-10-14 11:00:00 0 6982 18.4 17.65 18.89 55.12 9 8.2
2018-10-14 12:00:00 0 7304 19.6 19.11 20.02 48.68 8.2 7.8
2018-10-14 13:00:00 0 7088 20.73 20.09 21.25 43.9 7.8 7.2
2018-10-14 14:00:00 0.8 7284 21.89 21 22.67 41.24 7.8 7.2
2018-10-14 15:00:00 0 7030 22.42 22.07 22.86 6.98 1.3 0
2018-10-14 16:00:00 0 7284 22.39 22.12 22.8 0 0 0
2018-10-14 17:00:00 1.4 7284 21.51 20.34 22.14 0 0 0
2018-10-14 18:00:00 1.2 6874 17.46 14.85 19.95 0 0 0
2018-10-14 19:00:00 0.4 6864 13.88 12.63 14.67 68.77 8 7.4
2018-10-14 20:00:00 0 6854 12 11.24 13.57 79.46 8.3 7.5
2018-10-14 21:00:00 0 6854 11.21 10.64 11.55 79.14 7.5 6.4
2018-10-14 22:00:00 0 6844 11.06 9.78 12.7 76.36 6.9 6.3
2018-10-14 23:00:00 0 6844 10.78 9.76 12.08 79.29 7.1 6.5
2018-10-15 00:00:00 0 6834 8.67 7.46 10.15 90.39 7 5.9
2018-10-15 01:00:00 0 6826 8.34 6.57 9.61 95.75 7.5 5.8
2018-10-15 02:00:00 0 6826 9.03 8.16 9.5 94.63 8.1 7.5
2018-10-15 03:00:00 0.2 6826 8.45 7.61 9.23 92.94 7.2 6.4
2018-10-15 04:00:00 0 6806 6.98 5.34 8.52 96.98 6.4 5.3
2018-10-15 05:00:00 2.4 6816 5.38 4.46 8.9 96.86 4.8 4.4
2018-10-15 06:00:00 0 6806 4.48 2.6 5.82 100 4.4 2.6
2018-10-15 07:00:00 0 6816 3.65 3.14 3.97 100 3.6 3.1
2018-10-15 08:00:00 0 7108 4.79 3.42 7.26 100 4.7 3.4
2018-10-15 09:00:00 0 7098 10.04 7.71 12.29 94.15 9 7.7
2018-10-15 10:00:00 0 7324 15 13.37 15.96 64.74 8.1 6.9
2018-10-15 11:00:00 0 7304 17.38 16.01 18.41 55.45 8.1 6.5
2018-10-15 12:00:00 0 7294 20.34 19.15 21.02 71.68 14.1 0
2018-10-15 13:00:00 0 7040 21.91 21.27 22.51 0 0 0
2018-10-15 14:00:00 0 7246 22.96 22.03 23.77 0 0 0